sensor_id;sensor_type;location;lat;lon;timestamp;P1;durP1;ratioP1;P2;durP2;ratioP2
14396;SDS011;50653;0.000;0.000;2022-09-09T00:03:46;0.60;;;0.50;;
14396;SDS011;50653;0.000;0.000;2022-09-09T00:09:00;1.43;;;0.60;;
14396;SDS011;50653;0.000;0.000;2022-09-09T00:14:26;0.77;;;0.70;;
14396;SDS011;50653;0.000;0.000;2022-09-09T00:17:03;1.10;;;0.70;;
14396;SDS011;50653;0.000;0.000;2022-09-09T00:22:37;0.87;;;0.60;;
14396;SDS011;50653;0.000;0.000;2022-09-09T00:25:14;1.10;;;1.00;;
14396;SDS011;50653;0.000;0.000;2022-09-09T00:27:49;0.70;;;0.60;;
14396;SDS011;50653;0.000;0.000;2022-09-09T00:32:45;1.10;;;0.50;;
14396;SDS011;50653;0.000;0.000;2022-09-09T00:37:47;0.90;;;0.90;;
14396;SDS011;50653;0.000;0.000;2022-09-09T00:40:33;0.80;;;0.70;;
14396;SDS011;50653;0.000;0.000;2022-09-09T00:43:10;0.83;;;0.83;;
14396;SDS011;50653;0.000;0.000;2022-09-09T00:49:00;1.77;;;0.70;;
14396;SDS011;50653;0.000;0.000;2022-09-09T00:59:58;1.90;;;0.93;;
14396;SDS011;50653;0.000;0.000;2022-09-09T01:07:57;2.13;;;0.67;;
14396;SDS011;50653;0.000;0.000;2022-09-09T01:10:39;1.37;;;1.00;;
14396;SDS011;50653;0.000;0.000;2022-09-09T01:13:15;0.90;;;0.67;;
14396;SDS011;50653;0.000;0.000;2022-09-09T01:15:47;0.70;;;0.70;;
14396;SDS011;50653;0.000;0.000;2022-09-09T01:18:16;0.80;;;0.73;;
14396;SDS011;50653;0.000;0.000;2022-09-09T01:20:47;1.57;;;0.80;;
14396;SDS011;50653;0.000;0.000;2022-09-09T01:28:44;5.67;;;0.97;;
14396;SDS011;50653;0.000;0.000;2022-09-09T01:31:34;2.03;;;0.70;;
14396;SDS011;50653;0.000;0.000;2022-09-09T01:34:08;0.80;;;0.70;;
14396;SDS011;50653;0.000;0.000;2022-09-09T01:39:20;1.37;;;0.50;;
14396;SDS011;50653;0.000;0.000;2022-09-09T01:41:53;1.17;;;0.80;;
14396;SDS011;50653;0.000;0.000;2022-09-09T01:44:21;1.33;;;0.70;;
14396;SDS011;50653;0.000;0.000;2022-09-09T01:46:47;1.83;;;0.50;;
14396;SDS011;50653;0.000;0.000;2022-09-09T01:49:18;0.70;;;0.60;;
14396;SDS011;50653;0.000;0.000;2022-09-09T01:51:46;0.63;;;0.50;;
14396;SDS011;50653;0.000;0.000;2022-09-09T01:54:18;5.20;;;0.70;;
14396;SDS011;50653;0.000;0.000;2022-09-09T01:57:03;1.23;;;0.67;;
14396;SDS011;50653;0.000;0.000;2022-09-09T02:02:26;2.93;;;0.70;;
14396;SDS011;50653;0.000;0.000;2022-09-09T02:07:51;3.90;;;0.60;;
14396;SDS011;50653;0.000;0.000;2022-09-09T02:10:45;1.70;;;0.70;;
14396;SDS011;50653;0.000;0.000;2022-09-09T02:13:30;2.60;;;0.80;;
14396;SDS011;50653;0.000;0.000;2022-09-09T02:21:39;0.80;;;0.70;;
14396;SDS011;50653;0.000;0.000;2022-09-09T02:24:08;1.00;;;0.90;;
14396;SDS011;50653;0.000;0.000;2022-09-09T02:26:42;0.60;;;0.50;;
14396;SDS011;50653;0.000;0.000;2022-09-09T02:29:16;1.70;;;0.87;;
14396;SDS011;50653;0.000;0.000;2022-09-09T02:31:47;2.50;;;0.60;;
14396;SDS011;50653;0.000;0.000;2022-09-09T02:34:20;0.90;;;0.60;;
14396;SDS011;50653;0.000;0.000;2022-09-09T02:36:47;2.30;;;0.80;;
14396;SDS011;50653;0.000;0.000;2022-09-09T02:39:14;0.90;;;0.63;;
14396;SDS011;50653;0.000;0.000;2022-09-09T02:41:40;9.03;;;0.80;;
14396;SDS011;50653;0.000;0.000;2022-09-09T02:44:14;2.00;;;0.60;;
14396;SDS011;50653;0.000;0.000;2022-09-09T02:46:51;0.80;;;0.60;;
14396;SDS011;50653;0.000;0.000;2022-09-09T02:52:20;0.97;;;0.70;;
14396;SDS011;50653;0.000;0.000;2022-09-09T02:54:54;1.00;;;0.50;;
14396;SDS011;50653;0.000;0.000;2022-09-09T02:57:28;1.33;;;0.60;;
14396;SDS011;50653;0.000;0.000;2022-09-09T02:59:57;0.93;;;0.73;;
14396;SDS011;50653;0.000;0.000;2022-09-09T03:02:23;0.80;;;0.50;;
14396;SDS011;50653;0.000;0.000;2022-09-09T03:04:54;0.77;;;0.63;;
14396;SDS011;50653;0.000;0.000;2022-09-09T03:07:20;0.80;;;0.60;;
14396;SDS011;50653;0.000;0.000;2022-09-09T03:09:47;0.80;;;0.70;;
14396;SDS011;50653;0.000;0.000;2022-09-09T03:12:14;0.93;;;0.93;;
14396;SDS011;50653;0.000;0.000;2022-09-09T03:14:41;0.70;;;0.60;;
14396;SDS011;50653;0.000;0.000;2022-09-09T03:17:08;1.80;;;0.60;;
14396;SDS011;50653;0.000;0.000;2022-09-09T03:19:38;4.70;;;0.90;;
14396;SDS011;50653;0.000;0.000;2022-09-09T03:22:08;0.93;;;0.50;;
14396;SDS011;50653;0.000;0.000;2022-09-09T03:24:37;0.80;;;0.53;;
14396;SDS011;50653;0.000;0.000;2022-09-09T03:27:03;0.80;;;0.60;;
14396;SDS011;50653;0.000;0.000;2022-09-09T03:29:29;0.70;;;0.50;;
14396;SDS011;50653;0.000;0.000;2022-09-09T03:31:58;1.93;;;0.70;;
14396;SDS011;50653;0.000;0.000;2022-09-09T03:34:23;0.83;;;0.60;;
14396;SDS011;50653;0.000;0.000;2022-09-09T03:36:49;0.90;;;0.70;;
14396;SDS011;50653;0.000;0.000;2022-09-09T03:39:15;3.23;;;0.90;;
14396;SDS011;50653;0.000;0.000;2022-09-09T03:41:42;0.70;;;0.50;;
14396;SDS011;50653;0.000;0.000;2022-09-09T03:44:10;0.80;;;0.80;;
14396;SDS011;50653;0.000;0.000;2022-09-09T03:46:38;2.37;;;0.77;;
14396;SDS011;50653;0.000;0.000;2022-09-09T03:49:04;0.97;;;0.70;;
14396;SDS011;50653;0.000;0.000;2022-09-09T03:51:31;1.00;;;0.60;;
14396;SDS011;50653;0.000;0.000;2022-09-09T03:53:57;0.70;;;0.60;;
14396;SDS011;50653;0.000;0.000;2022-09-09T03:56:24;0.70;;;0.50;;
14396;SDS011;50653;0.000;0.000;2022-09-09T03:58:50;1.00;;;0.73;;
14396;SDS011;50653;0.000;0.000;2022-09-09T04:01:16;0.70;;;0.60;;
14396;SDS011;50653;0.000;0.000;2022-09-09T04:03:43;0.70;;;0.60;;
14396;SDS011;50653;0.000;0.000;2022-09-09T04:06:10;0.97;;;0.83;;
14396;SDS011;50653;0.000;0.000;2022-09-09T04:08:38;0.80;;;0.70;;
14396;SDS011;50653;0.000;0.000;2022-09-09T04:11:05;1.17;;;0.70;;
14396;SDS011;50653;0.000;0.000;2022-09-09T04:13:33;1.13;;;0.60;;
14396;SDS011;50653;0.000;0.000;2022-09-09T04:16:01;2.10;;;0.67;;
14396;SDS011;50653;0.000;0.000;2022-09-09T04:18:29;1.17;;;0.50;;
14396;SDS011;50653;0.000;0.000;2022-09-09T04:20:55;2.63;;;0.80;;
14396;SDS011;50653;0.000;0.000;2022-09-09T04:23:26;4.53;;;1.03;;
14396;SDS011;50653;0.000;0.000;2022-09-09T04:25:56;1.33;;;0.60;;
14396;SDS011;50653;0.000;0.000;2022-09-09T04:28:24;0.70;;;0.50;;
14396;SDS011;50653;0.000;0.000;2022-09-09T04:30:52;3.53;;;0.80;;
14396;SDS011;50653;0.000;0.000;2022-09-09T04:33:18;1.07;;;1.00;;
14396;SDS011;50653;0.000;0.000;2022-09-09T04:35:48;1.10;;;0.60;;
14396;SDS011;50653;0.000;0.000;2022-09-09T04:38:17;2.33;;;1.00;;
14396;SDS011;50653;0.000;0.000;2022-09-09T04:40:45;2.47;;;0.70;;
14396;SDS011;50653;0.000;0.000;2022-09-09T04:43:12;3.40;;;3.20;;
14396;SDS011;50653;0.000;0.000;2022-09-09T04:45:39;1.37;;;1.27;;
14396;SDS011;50653;0.000;0.000;2022-09-09T04:48:06;0.80;;;0.80;;
14396;SDS011;50653;0.000;0.000;2022-09-09T04:50:33;0.90;;;0.67;;
14396;SDS011;50653;0.000;0.000;2022-09-09T04:53:00;0.80;;;0.60;;
14396;SDS011;50653;0.000;0.000;2022-09-09T04:55:30;3.63;;;0.90;;
14396;SDS011;50653;0.000;0.000;2022-09-09T04:57:56;1.67;;;0.70;;
14396;SDS011;50653;0.000;0.000;2022-09-09T05:00:23;0.80;;;0.63;;
14396;SDS011;50653;0.000;0.000;2022-09-09T05:02:50;2.00;;;0.70;;
14396;SDS011;50653;0.000;0.000;2022-09-09T05:05:16;1.20;;;0.63;;
14396;SDS011;50653;0.000;0.000;2022-09-09T05:07:45;1.43;;;0.70;;
14396;SDS011;50653;0.000;0.000;2022-09-09T05:10:13;2.30;;;0.67;;
14396;SDS011;50653;0.000;0.000;2022-09-09T05:12:41;3.73;;;0.80;;
14396;SDS011;50653;0.000;0.000;2022-09-09T05:15:07;2.30;;;1.07;;
14396;SDS011;50653;0.000;0.000;2022-09-09T05:17:33;1.47;;;0.90;;
14396;SDS011;50653;0.000;0.000;2022-09-09T05:19:59;0.70;;;0.70;;
14396;SDS011;50653;0.000;0.000;2022-09-09T05:22:24;1.80;;;0.80;;
14396;SDS011;50653;0.000;0.000;2022-09-09T05:24:52;1.07;;;0.60;;
14396;SDS011;50653;0.000;0.000;2022-09-09T05:27:18;0.77;;;0.70;;
14396;SDS011;50653;0.000;0.000;2022-09-09T05:29:48;0.70;;;0.70;;
14396;SDS011;50653;0.000;0.000;2022-09-09T05:32:13;1.50;;;1.40;;
14396;SDS011;50653;0.000;0.000;2022-09-09T05:34:43;1.33;;;0.60;;
14396;SDS011;50653;0.000;0.000;2022-09-09T05:37:08;0.87;;;0.70;;
14396;SDS011;50653;0.000;0.000;2022-09-09T05:39:36;0.80;;;0.60;;
14396;SDS011;50653;0.000;0.000;2022-09-09T05:42:02;3.47;;;0.70;;
14396;SDS011;50653;0.000;0.000;2022-09-09T05:44:30;2.97;;;0.70;;
14396;SDS011;50653;0.000;0.000;2022-09-09T05:46:57;1.93;;;0.70;;
14396;SDS011;50653;0.000;0.000;2022-09-09T05:49:23;1.13;;;0.60;;
14396;SDS011;50653;0.000;0.000;2022-09-09T05:51:49;2.17;;;0.77;;
14396;SDS011;50653;0.000;0.000;2022-09-09T05:54:17;1.40;;;0.80;;
14396;SDS011;50653;0.000;0.000;2022-09-09T05:56:46;1.23;;;0.80;;
14396;SDS011;50653;0.000;0.000;2022-09-09T05:59:13;0.90;;;0.80;;
14396;SDS011;50653;0.000;0.000;2022-09-09T06:01:40;0.70;;;0.60;;
14396;SDS011;50653;0.000;0.000;2022-09-09T06:04:07;1.20;;;0.80;;
14396;SDS011;50653;0.000;0.000;2022-09-09T06:06:35;0.80;;;0.70;;
14396;SDS011;50653;0.000;0.000;2022-09-09T06:09:04;3.00;;;1.47;;
14396;SDS011;50653;0.000;0.000;2022-09-09T06:11:34;4.00;;;0.70;;
14396;SDS011;50653;0.000;0.000;2022-09-09T06:14:01;0.83;;;0.67;;
14396;SDS011;50653;0.000;0.000;2022-09-09T06:16:29;1.33;;;0.60;;
14396;SDS011;50653;0.000;0.000;2022-09-09T06:18:57;1.87;;;0.80;;
14396;SDS011;50653;0.000;0.000;2022-09-09T06:23:51;1.00;;;0.77;;
14396;SDS011;50653;0.000;0.000;2022-09-09T06:26:19;1.47;;;1.10;;
14396;SDS011;50653;0.000;0.000;2022-09-09T06:28:49;1.23;;;0.93;;
14396;SDS011;50653;0.000;0.000;2022-09-09T06:31:19;3.33;;;0.87;;
14396;SDS011;50653;0.000;0.000;2022-09-09T06:33:48;1.37;;;0.73;;
14396;SDS011;50653;0.000;0.000;2022-09-09T06:36:22;5.33;;;0.83;;
14396;SDS011;50653;0.000;0.000;2022-09-09T06:38:49;2.20;;;0.70;;
14396;SDS011;50653;0.000;0.000;2022-09-09T06:41:16;1.90;;;0.70;;
14396;SDS011;50653;0.000;0.000;2022-09-09T06:43:44;1.00;;;0.80;;
14396;SDS011;50653;0.000;0.000;2022-09-09T06:46:12;1.20;;;0.90;;
14396;SDS011;50653;0.000;0.000;2022-09-09T06:48:39;5.50;;;1.10;;
14396;SDS011;50653;0.000;0.000;2022-09-09T06:51:14;1.57;;;1.33;;
14396;SDS011;50653;0.000;0.000;2022-09-09T06:53:42;0.93;;;0.80;;
14396;SDS011;50653;0.000;0.000;2022-09-09T06:58:37;3.90;;;0.70;;
14396;SDS011;50653;0.000;0.000;2022-09-09T07:01:10;0.77;;;0.73;;
14396;SDS011;50653;0.000;0.000;2022-09-09T07:03:38;1.93;;;1.30;;
14396;SDS011;50653;0.000;0.000;2022-09-09T07:06:04;1.63;;;1.17;;
14396;SDS011;50653;0.000;0.000;2022-09-09T07:08:31;1.13;;;0.80;;
14396;SDS011;50653;0.000;0.000;2022-09-09T07:11:03;1.50;;;1.20;;
14396;SDS011;50653;0.000;0.000;2022-09-09T07:13:31;5.00;;;1.90;;
14396;SDS011;50653;0.000;0.000;2022-09-09T07:16:05;1.67;;;1.20;;
14396;SDS011;50653;0.000;0.000;2022-09-09T07:18:31;5.13;;;1.00;;
14396;SDS011;50653;0.000;0.000;2022-09-09T07:20:59;1.00;;;0.60;;
14396;SDS011;50653;0.000;0.000;2022-09-09T07:23:26;0.87;;;0.73;;
14396;SDS011;50653;0.000;0.000;2022-09-09T07:25:51;3.13;;;1.17;;
14396;SDS011;50653;0.000;0.000;2022-09-09T07:28:18;0.80;;;0.80;;
14396;SDS011;50653;0.000;0.000;2022-09-09T07:30:58;2.13;;;0.70;;
14396;SDS011;50653;0.000;0.000;2022-09-09T07:33:30;0.80;;;0.70;;
14396;SDS011;50653;0.000;0.000;2022-09-09T07:38:50;1.57;;;0.90;;
14396;SDS011;50653;0.000;0.000;2022-09-09T07:44:10;0.90;;;0.73;;
14396;SDS011;50653;0.000;0.000;2022-09-09T07:46:39;0.60;;;0.50;;
14396;SDS011;50653;0.000;0.000;2022-09-09T07:49:08;1.97;;;0.90;;
14396;SDS011;50653;0.000;0.000;2022-09-09T07:51:35;2.53;;;1.10;;
14396;SDS011;50653;0.000;0.000;2022-09-09T07:54:04;1.50;;;0.70;;
14396;SDS011;50653;0.000;0.000;2022-09-09T07:56:33;4.70;;;2.00;;
14396;SDS011;50653;0.000;0.000;2022-09-09T07:59:00;0.80;;;0.60;;
14396;SDS011;50653;0.000;0.000;2022-09-09T08:01:27;0.60;;;0.50;;
14396;SDS011;50653;0.000;0.000;2022-09-09T08:04:03;0.77;;;0.67;;
14396;SDS011;50653;0.000;0.000;2022-09-09T08:06:33;1.57;;;0.97;;
14396;SDS011;50653;0.000;0.000;2022-09-09T08:09:03;2.00;;;0.90;;
14396;SDS011;50653;0.000;0.000;2022-09-09T08:11:31;1.77;;;0.90;;
14396;SDS011;50653;0.000;0.000;2022-09-09T08:13:59;1.00;;;0.83;;
14396;SDS011;50653;0.000;0.000;2022-09-09T08:16:26;1.43;;;1.20;;
14396;SDS011;50653;0.000;0.000;2022-09-09T08:18:54;2.50;;;1.17;;
14396;SDS011;50653;0.000;0.000;2022-09-09T08:21:24;1.43;;;1.33;;
14396;SDS011;50653;0.000;0.000;2022-09-09T08:23:57;3.93;;;1.60;;
14396;SDS011;50653;0.000;0.000;2022-09-09T08:26:25;2.43;;;1.33;;
14396;SDS011;50653;0.000;0.000;2022-09-09T08:28:54;2.07;;;1.03;;
14396;SDS011;50653;0.000;0.000;2022-09-09T08:33:54;6.07;;;0.90;;
14396;SDS011;50653;0.000;0.000;2022-09-09T08:36:22;4.87;;;0.93;;
14396;SDS011;50653;0.000;0.000;2022-09-09T08:38:51;1.87;;;1.33;;
14396;SDS011;50653;0.000;0.000;2022-09-09T08:47:44;3.70;;;1.17;;
14396;SDS011;50653;0.000;0.000;2022-09-09T08:50:27;2.03;;;1.80;;
14396;SDS011;50653;0.000;0.000;2022-09-09T08:58:20;1.20;;;1.10;;
14396;SDS011;50653;0.000;0.000;2022-09-09T09:10:02;2.17;;;1.97;;
14396;SDS011;50653;0.000;0.000;2022-09-09T09:12:48;1.23;;;1.13;;
14396;SDS011;50653;0.000;0.000;2022-09-09T09:15:18;1.73;;;1.63;;
14396;SDS011;50653;0.000;0.000;2022-09-09T09:17:49;2.17;;;1.20;;
14396;SDS011;50653;0.000;0.000;2022-09-09T09:20:16;1.40;;;1.30;;
14396;SDS011;50653;0.000;0.000;2022-09-09T09:22:51;4.63;;;1.20;;
14396;SDS011;50653;0.000;0.000;2022-09-09T09:25:20;1.40;;;1.30;;
14396;SDS011;50653;0.000;0.000;2022-09-09T09:27:58;1.30;;;1.00;;
14396;SDS011;50653;0.000;0.000;2022-09-09T09:30:35;1.40;;;1.30;;
14396;SDS011;50653;0.000;0.000;2022-09-09T09:33:24;5.50;;;4.73;;
14396;SDS011;50653;0.000;0.000;2022-09-09T09:36:09;1.67;;;1.57;;
14396;SDS011;50653;0.000;0.000;2022-09-09T09:38:37;1.33;;;1.07;;
14396;SDS011;50653;0.000;0.000;2022-09-09T09:41:03;2.57;;;1.10;;
14396;SDS011;50653;0.000;0.000;2022-09-09T09:43:30;1.13;;;1.00;;
14396;SDS011;50653;0.000;0.000;2022-09-09T09:46:04;2.23;;;1.23;;
14396;SDS011;50653;0.000;0.000;2022-09-09T09:48:43;2.17;;;1.00;;
14396;SDS011;50653;0.000;0.000;2022-09-09T09:51:12;2.67;;;1.27;;
14396;SDS011;50653;0.000;0.000;2022-09-09T09:53:43;1.50;;;1.40;;
14396;SDS011;50653;0.000;0.000;2022-09-09T09:56:12;1.53;;;1.43;;
14396;SDS011;50653;0.000;0.000;2022-09-09T10:03:51;1.47;;;1.37;;
14396;SDS011;50653;0.000;0.000;2022-09-09T10:06:29;1.53;;;1.40;;
14396;SDS011;50653;0.000;0.000;2022-09-09T10:08:56;1.87;;;1.30;;
14396;SDS011;50653;0.000;0.000;2022-09-09T10:11:25;5.13;;;1.57;;
14396;SDS011;50653;0.000;0.000;2022-09-09T10:14:13;2.67;;;1.17;;
14396;SDS011;50653;0.000;0.000;2022-09-09T10:19:34;1.77;;;1.10;;
14396;SDS011;50653;0.000;0.000;2022-09-09T10:22:15;1.70;;;0.97;;
14396;SDS011;50653;0.000;0.000;2022-09-09T10:24:54;2.20;;;1.30;;
14396;SDS011;50653;0.000;0.000;2022-09-09T10:33:32;2.43;;;1.30;;
14396;SDS011;50653;0.000;0.000;2022-09-09T10:36:16;1.77;;;1.10;;
14396;SDS011;50653;0.000;0.000;2022-09-09T10:38:45;7.47;;;1.43;;
14396;SDS011;50653;0.000;0.000;2022-09-09T10:44:01;2.70;;;1.50;;
14396;SDS011;50653;0.000;0.000;2022-09-09T10:57:40;1.40;;;1.13;;
14396;SDS011;50653;0.000;0.000;2022-09-09T11:02:44;5.57;;;0.93;;
14396;SDS011;50653;0.000;0.000;2022-09-09T11:05:20;3.60;;;2.00;;
14396;SDS011;50653;0.000;0.000;2022-09-09T11:08:09;4.53;;;1.30;;
14396;SDS011;50653;0.000;0.000;2022-09-09T11:11:00;1.93;;;0.83;;
14396;SDS011;50653;0.000;0.000;2022-09-09T11:16:23;3.47;;;1.40;;
14396;SDS011;50653;0.000;0.000;2022-09-09T11:21:55;0.83;;;0.83;;
14396;SDS011;50653;0.000;0.000;2022-09-09T11:24:27;1.00;;;0.80;;
14396;SDS011;50653;0.000;0.000;2022-09-09T11:27:02;1.00;;;0.70;;
14396;SDS011;50653;0.000;0.000;2022-09-09T11:29:41;3.03;;;1.20;;
14396;SDS011;50653;0.000;0.000;2022-09-09T11:38:19;1.53;;;1.20;;
14396;SDS011;50653;0.000;0.000;2022-09-09T11:46:10;3.27;;;3.03;;
14396;SDS011;50653;0.000;0.000;2022-09-09T11:48:44;1.40;;;1.30;;
14396;SDS011;50653;0.000;0.000;2022-09-09T11:51:12;1.73;;;1.40;;
14396;SDS011;50653;0.000;0.000;2022-09-09T11:53:51;2.03;;;1.50;;
14396;SDS011;50653;0.000;0.000;2022-09-09T11:56:34;1.53;;;1.43;;
14396;SDS011;50653;0.000;0.000;2022-09-09T11:59:21;4.80;;;1.33;;
14396;SDS011;50653;0.000;0.000;2022-09-09T12:04:28;1.73;;;1.37;;
14396;SDS011;50653;0.000;0.000;2022-09-09T12:06:59;1.83;;;1.73;;
14396;SDS011;50653;0.000;0.000;2022-09-09T12:12:36;1.90;;;1.30;;
14396;SDS011;50653;0.000;0.000;2022-09-09T12:17:44;1.90;;;1.80;;
14396;SDS011;50653;0.000;0.000;2022-09-09T12:20:19;2.30;;;2.20;;
14396;SDS011;50653;0.000;0.000;2022-09-09T12:28:27;2.23;;;2.00;;
14396;SDS011;50653;0.000;0.000;2022-09-09T12:33:42;1.50;;;1.20;;
14396;SDS011;50653;0.000;0.000;2022-09-09T12:36:18;1.50;;;1.17;;
14396;SDS011;50653;0.000;0.000;2022-09-09T12:38:48;2.23;;;1.70;;
14396;SDS011;50653;0.000;0.000;2022-09-09T12:41:25;1.63;;;1.53;;
14396;SDS011;50653;0.000;0.000;2022-09-09T12:44:02;2.13;;;2.03;;
14396;SDS011;50653;0.000;0.000;2022-09-09T12:49:05;1.50;;;1.40;;
14396;SDS011;50653;0.000;0.000;2022-09-09T12:51:49;4.40;;;1.93;;
14396;SDS011;50653;0.000;0.000;2022-09-09T12:54:15;3.80;;;2.00;;
14396;SDS011;50653;0.000;0.000;2022-09-09T12:56:44;1.53;;;1.43;;
14396;SDS011;50653;0.000;0.000;2022-09-09T12:59:21;2.00;;;1.60;;
14396;SDS011;50653;0.000;0.000;2022-09-09T13:01:59;3.50;;;3.20;;
14396;SDS011;50653;0.000;0.000;2022-09-09T13:04:25;5.40;;;4.80;;
14396;SDS011;50653;0.000;0.000;2022-09-09T13:06:51;4.23;;;2.40;;
14396;SDS011;50653;0.000;0.000;2022-09-09T13:09:20;6.33;;;3.13;;
14396;SDS011;50653;0.000;0.000;2022-09-09T13:11:47;3.20;;;2.30;;
14396;SDS011;50653;0.000;0.000;2022-09-09T13:14:18;1.80;;;1.70;;
14396;SDS011;50653;0.000;0.000;2022-09-09T13:16:57;6.10;;;2.60;;
14396;SDS011;50653;0.000;0.000;2022-09-09T13:19:24;4.70;;;2.67;;
14396;SDS011;50653;0.000;0.000;2022-09-09T13:21:53;1.97;;;1.60;;
14396;SDS011;50653;0.000;0.000;2022-09-09T13:27:05;1.13;;;1.03;;
14396;SDS011;50653;0.000;0.000;2022-09-09T13:29:54;1.10;;;1.00;;
14396;SDS011;50653;0.000;0.000;2022-09-09T13:32:20;2.93;;;1.30;;
14396;SDS011;50653;0.000;0.000;2022-09-09T13:35:22;0.90;;;0.90;;
14396;SDS011;50653;0.000;0.000;2022-09-09T13:37:48;5.10;;;1.17;;
14396;SDS011;50653;0.000;0.000;2022-09-09T13:40:18;1.53;;;1.43;;
14396;SDS011;50653;0.000;0.000;2022-09-09T13:42:46;1.97;;;1.40;;
14396;SDS011;50653;0.000;0.000;2022-09-09T13:45:20;1.40;;;1.30;;
14396;SDS011;50653;0.000;0.000;2022-09-09T13:47:47;1.40;;;1.30;;
14396;SDS011;50653;0.000;0.000;2022-09-09T13:52:56;1.23;;;1.13;;
14396;SDS011;50653;0.000;0.000;2022-09-09T13:55:36;1.63;;;1.53;;
14396;SDS011;50653;0.000;0.000;2022-09-09T13:58:03;2.07;;;1.30;;
14396;SDS011;50653;0.000;0.000;2022-09-09T14:00:30;1.30;;;1.20;;
14396;SDS011;50653;0.000;0.000;2022-09-09T14:02:59;1.53;;;1.43;;
14396;SDS011;50653;0.000;0.000;2022-09-09T14:05:27;1.80;;;1.23;;
14396;SDS011;50653;0.000;0.000;2022-09-09T14:07:53;2.47;;;2.03;;
14396;SDS011;50653;0.000;0.000;2022-09-09T14:10:19;1.60;;;1.47;;
14396;SDS011;50653;0.000;0.000;2022-09-09T14:12:46;3.03;;;1.97;;
14396;SDS011;50653;0.000;0.000;2022-09-09T14:15:11;3.00;;;1.70;;
14396;SDS011;50653;0.000;0.000;2022-09-09T14:17:37;4.10;;;1.77;;
14396;SDS011;50653;0.000;0.000;2022-09-09T14:20:04;3.20;;;1.77;;
14396;SDS011;50653;0.000;0.000;2022-09-09T14:22:33;2.70;;;2.07;;
14396;SDS011;50653;0.000;0.000;2022-09-09T14:25:00;2.70;;;2.00;;
14396;SDS011;50653;0.000;0.000;2022-09-09T14:27:25;3.63;;;1.77;;
14396;SDS011;50653;0.000;0.000;2022-09-09T14:29:51;3.03;;;2.23;;
14396;SDS011;50653;0.000;0.000;2022-09-09T14:32:17;2.80;;;2.70;;
14396;SDS011;50653;0.000;0.000;2022-09-09T14:34:43;2.90;;;2.70;;
14396;SDS011;50653;0.000;0.000;2022-09-09T14:37:09;4.63;;;4.03;;
14396;SDS011;50653;0.000;0.000;2022-09-09T14:39:35;3.70;;;2.60;;
14396;SDS011;50653;0.000;0.000;2022-09-09T14:42:01;2.47;;;2.27;;
14396;SDS011;50653;0.000;0.000;2022-09-09T14:44:27;3.03;;;2.70;;
14396;SDS011;50653;0.000;0.000;2022-09-09T14:46:53;5.57;;;2.57;;
14396;SDS011;50653;0.000;0.000;2022-09-09T14:49:19;6.00;;;2.10;;
14396;SDS011;50653;0.000;0.000;2022-09-09T14:51:45;5.10;;;3.00;;
14396;SDS011;50653;0.000;0.000;2022-09-09T14:54:10;9.97;;;8.20;;
14396;SDS011;50653;0.000;0.000;2022-09-09T14:56:37;2.47;;;2.27;;
14396;SDS011;50653;0.000;0.000;2022-09-09T14:59:03;4.27;;;2.90;;
14396;SDS011;50653;0.000;0.000;2022-09-09T15:01:29;3.27;;;3.07;;
14396;SDS011;50653;0.000;0.000;2022-09-09T15:03:57;5.17;;;2.23;;
14396;SDS011;50653;0.000;0.000;2022-09-09T15:06:25;3.00;;;1.60;;
14396;SDS011;50653;0.000;0.000;2022-09-09T15:08:52;2.00;;;1.90;;
14396;SDS011;50653;0.000;0.000;2022-09-09T15:11:19;2.47;;;2.30;;
14396;SDS011;50653;0.000;0.000;2022-09-09T15:13:45;2.53;;;2.40;;
14396;SDS011;50653;0.000;0.000;2022-09-09T15:16:13;4.60;;;1.93;;
14396;SDS011;50653;0.000;0.000;2022-09-09T15:18:40;5.87;;;3.17;;
14396;SDS011;50653;0.000;0.000;2022-09-09T15:21:10;2.30;;;2.20;;
14396;SDS011;50653;0.000;0.000;2022-09-09T15:23:37;2.90;;;2.70;;
14396;SDS011;50653;0.000;0.000;2022-09-09T15:26:03;2.50;;;1.30;;
14396;SDS011;50653;0.000;0.000;2022-09-09T15:28:31;2.10;;;1.60;;
14396;SDS011;50653;0.000;0.000;2022-09-09T15:30:58;1.77;;;1.10;;
14396;SDS011;50653;0.000;0.000;2022-09-09T15:33:31;7.23;;;1.77;;
14396;SDS011;50653;0.000;0.000;2022-09-09T15:35:57;1.73;;;1.63;;
14396;SDS011;50653;0.000;0.000;2022-09-09T15:38:22;2.97;;;1.80;;
14396;SDS011;50653;0.000;0.000;2022-09-09T15:40:56;2.10;;;1.70;;
14396;SDS011;50653;0.000;0.000;2022-09-09T15:43:23;2.97;;;1.53;;
14396;SDS011;50653;0.000;0.000;2022-09-09T15:45:51;3.03;;;1.73;;
14396;SDS011;50653;0.000;0.000;2022-09-09T15:48:26;1.60;;;1.50;;
14396;SDS011;50653;0.000;0.000;2022-09-09T15:51:03;2.00;;;1.70;;
14396;SDS011;50653;0.000;0.000;2022-09-09T15:53:30;6.33;;;1.93;;
14396;SDS011;50653;0.000;0.000;2022-09-09T15:55:57;2.83;;;2.63;;
14396;SDS011;50653;0.000;0.000;2022-09-09T15:58:23;2.67;;;1.87;;
14396;SDS011;50653;0.000;0.000;2022-09-09T16:00:49;4.30;;;4.00;;
14396;SDS011;50653;0.000;0.000;2022-09-09T16:03:15;2.80;;;2.53;;
14396;SDS011;50653;0.000;0.000;2022-09-09T16:05:40;3.57;;;2.23;;
14396;SDS011;50653;0.000;0.000;2022-09-09T16:08:06;3.57;;;2.03;;
14396;SDS011;50653;0.000;0.000;2022-09-09T16:10:32;2.03;;;1.93;;
14396;SDS011;50653;0.000;0.000;2022-09-09T16:12:57;1.83;;;1.73;;
14396;SDS011;50653;0.000;0.000;2022-09-09T16:15:23;3.00;;;1.80;;
14396;SDS011;50653;0.000;0.000;2022-09-09T16:17:52;2.27;;;2.03;;
14396;SDS011;50653;0.000;0.000;2022-09-09T16:20:18;1.97;;;1.87;;
14396;SDS011;50653;0.000;0.000;2022-09-09T16:22:44;2.63;;;1.67;;
14396;SDS011;50653;0.000;0.000;2022-09-09T16:25:10;1.70;;;1.60;;
14396;SDS011;50653;0.000;0.000;2022-09-09T16:27:35;1.80;;;1.70;;
14396;SDS011;50653;0.000;0.000;2022-09-09T16:30:01;1.40;;;1.30;;
14396;SDS011;50653;0.000;0.000;2022-09-09T16:32:27;2.60;;;1.77;;
14396;SDS011;50653;0.000;0.000;2022-09-09T16:34:53;1.20;;;0.90;;
14396;SDS011;50653;0.000;0.000;2022-09-09T16:37:18;1.30;;;1.20;;
14396;SDS011;50653;0.000;0.000;2022-09-09T16:39:44;1.63;;;1.07;;
14396;SDS011;50653;0.000;0.000;2022-09-09T16:42:09;1.17;;;1.07;;
14396;SDS011;50653;0.000;0.000;2022-09-09T16:44:35;1.33;;;1.17;;
14396;SDS011;50653;0.000;0.000;2022-09-09T16:47:01;1.43;;;1.00;;
14396;SDS011;50653;0.000;0.000;2022-09-09T16:49:27;2.50;;;2.03;;
14396;SDS011;50653;0.000;0.000;2022-09-09T16:51:53;1.93;;;1.70;;
14396;SDS011;50653;0.000;0.000;2022-09-09T16:54:19;1.00;;;0.90;;
14396;SDS011;50653;0.000;0.000;2022-09-09T16:56:46;1.50;;;1.30;;
14396;SDS011;50653;0.000;0.000;2022-09-09T16:59:17;2.80;;;1.47;;
14396;SDS011;50653;0.000;0.000;2022-09-09T17:01:44;1.00;;;1.00;;
14396;SDS011;50653;0.000;0.000;2022-09-09T17:04:13;1.07;;;0.97;;
14396;SDS011;50653;0.000;0.000;2022-09-09T17:06:45;2.50;;;1.53;;
14396;SDS011;50653;0.000;0.000;2022-09-09T17:09:12;1.87;;;1.77;;
14396;SDS011;50653;0.000;0.000;2022-09-09T17:11:38;1.53;;;1.43;;
14396;SDS011;50653;0.000;0.000;2022-09-09T17:14:05;6.37;;;2.10;;
14396;SDS011;50653;0.000;0.000;2022-09-09T17:16:32;5.00;;;2.27;;
14396;SDS011;50653;0.000;0.000;2022-09-09T17:19:02;2.80;;;2.60;;
14396;SDS011;50653;0.000;0.000;2022-09-09T17:21:29;3.70;;;2.13;;
14396;SDS011;50653;0.000;0.000;2022-09-09T17:23:56;2.97;;;2.30;;
14396;SDS011;50653;0.000;0.000;2022-09-09T17:26:23;2.50;;;2.33;;
14396;SDS011;50653;0.000;0.000;2022-09-09T17:28:52;2.13;;;2.03;;
14396;SDS011;50653;0.000;0.000;2022-09-09T17:31:18;2.20;;;2.03;;
14396;SDS011;50653;0.000;0.000;2022-09-09T17:33:45;3.17;;;2.50;;
14396;SDS011;50653;0.000;0.000;2022-09-09T17:36:17;2.20;;;2.10;;
14396;SDS011;50653;0.000;0.000;2022-09-09T17:38:44;6.07;;;2.27;;
14396;SDS011;50653;0.000;0.000;2022-09-09T17:41:20;2.70;;;2.60;;
14396;SDS011;50653;0.000;0.000;2022-09-09T17:43:56;2.33;;;1.97;;
14396;SDS011;50653;0.000;0.000;2022-09-09T17:46:27;1.90;;;1.80;;
14396;SDS011;50653;0.000;0.000;2022-09-09T17:49:01;3.30;;;3.10;;
14396;SDS011;50653;0.000;0.000;2022-09-09T17:51:30;2.33;;;2.13;;
14396;SDS011;50653;0.000;0.000;2022-09-09T17:53:58;2.33;;;2.23;;
14396;SDS011;50653;0.000;0.000;2022-09-09T17:56:26;2.37;;;2.27;;
14396;SDS011;50653;0.000;0.000;2022-09-09T17:58:55;4.43;;;2.10;;